Time;durP1;ratioP1;P1;durP2;ratioP2;P2;SDS_P1;SDS_P2;PMS_P1;PMS_P2;Temp;Humidity;BMP_temperature;BMP_pressure;BME280_temperature;BME280_humidity;BME280_pressure;Samples;Min_cycle;Max_cycle;Signal;HPM_P1;HPM_P2
2021/04/15 00:02:48;;;;;;;7.18;1.50;;;3.90;99.90;;;;;;5106272;28;20031;-77
2021/04/15 00:05:22;;;;;;;2.92;1.30;;;3.90;99.90;;;;;;5090961;28;20036;-78
2021/04/15 00:07:47;;;;;;;5.43;1.40;;;3.90;99.90;;;;;;5076570;28;20043;-79
2021/04/15 00:10:14;;;;;;;5.53;1.50;;;3.80;99.90;;;;;;5110938;28;20036;-77
2021/04/15 00:12:40;;;;;;;3.38;1.30;;;3.90;99.90;;;;;;5084342;28;20043;-80
2021/04/15 00:15:09;;;;;;;3.63;1.52;;;3.80;99.90;;;;;;5083848;28;20133;-78
2021/04/15 00:17:36;;;;;;;4.88;1.52;;;3.70;99.90;;;;;;5090019;28;20052;-77
2021/04/15 00:20:04;;;;;;;5.93;1.70;;;3.70;99.90;;;;;;5083859;28;20040;-80
2021/04/15 00:22:30;;;;;;;3.50;1.40;;;3.60;99.90;;;;;;5081789;28;20153;-77
2021/04/15 00:24:59;;;;;;;3.90;1.50;;;3.60;99.90;;;;;;5077912;28;20068;-80
2021/04/15 00:27:26;;;;;;;4.50;1.35;;;3.50;99.90;;;;;;5087819;28;20427;-77
2021/04/15 00:29:51;;;;;;;5.93;1.60;;;3.60;99.90;;;;;;5087163;28;20058;-79
2021/04/15 00:32:17;;;;;;;4.75;1.67;;;3.40;99.90;;;;;;5085292;28;20115;-77
2021/04/15 00:34:43;;;;;;;4.50;1.45;;;3.40;99.90;;;;;;5085321;28;20060;-78
2021/04/15 00:37:09;;;;;;;2.53;1.42;;;3.30;99.90;;;;;;5077059;28;20040;-77
2021/04/15 00:39:34;;;;;;;5.15;1.52;;;3.30;99.90;;;;;;5086117;28;20043;-80
2021/04/15 00:42:00;;;;;;;5.30;1.50;;;3.20;99.90;;;;;;5074766;28;20037;-78
2021/04/15 00:44:26;;;;;;;6.35;1.48;;;3.20;99.90;;;;;;5083940;28;20047;-77
2021/04/15 00:47:01;;;;;;;5.75;1.77;;;3.10;99.90;;;;;;5070445;28;20456;-79
2021/04/15 00:49:53;;;;;;;8.30;1.60;;;3.10;99.90;;;;;;5076756;28;20044;-80
2021/04/15 00:52:22;;;;;;;5.50;1.67;;;3.10;99.90;;;;;;5083301;28;20576;-78
2021/04/15 00:54:55;;;;;;;7.55;1.73;;;3.00;99.90;;;;;;5109059;28;20043;-80
2021/04/15 00:57:28;;;;;;;3.22;1.30;;;3.10;99.90;;;;;;5085645;28;20050;-77
2021/04/15 00:59:55;;;;;;;4.68;1.60;;;2.90;99.90;;;;;;5082837;28;20037;-79
2021/04/15 01:02:23;;;;;;;3.80;1.77;;;3.00;99.90;;;;;;5081754;28;20047;-77
2021/04/15 01:05:00;;;;;;;4.72;1.80;;;2.90;99.90;;;;;;5074476;28;20029;-78
2021/04/15 01:07:27;;;;;;;5.10;1.60;;;2.80;99.90;;;;;;5073777;28;20040;-79
2021/04/15 01:09:53;;;;;;;3.58;1.50;;;2.80;99.90;;;;;;5081557;28;20029;-78
2021/04/15 01:13:01;;;;;;;3.63;1.85;;;2.80;99.90;;;;;;5080959;28;20365;-78
2021/04/15 01:15:46;;;;;;;10.55;1.80;;;2.80;99.90;;;;;;5014737;28;20422;-77
2021/04/15 01:18:27;;;;;;;8.80;2.10;;;2.70;99.90;;;;;;4996647;28;20089;-78
2021/04/15 01:21:22;;;;;;;3.17;1.73;;;2.70;99.90;;;;;;4999223;28;20065;-78
2021/04/15 01:24:02;;;;;;;7.65;2.03;;;2.60;99.90;;;;;;5003597;28;20125;-79
2021/04/15 01:27:05;;;;;;;2.72;1.40;;;2.50;99.90;;;;;;4983472;28;20080;-80
2021/04/15 01:29:51;;;;;;;6.55;1.67;;;2.40;99.90;;;;;;4998843;28;20204;-78
2021/04/15 01:32:37;;;;;;;5.55;1.30;;;2.30;99.90;;;;;;5003838;28;20061;-77
2021/04/15 01:35:21;;;;;;;4.20;2.03;;;2.20;99.90;;;;;;5000124;28;20041;-80
2021/04/15 01:38:04;;;;;;;6.30;1.60;;;2.10;99.90;;;;;;5003770;28;20132;-78
2021/04/15 01:40:52;;;;;;;3.38;1.55;;;2.10;99.90;;;;;;4993568;28;20062;-80
2021/04/15 01:43:21;;;;;;;2.97;1.63;;;2.10;99.90;;;;;;5003620;28;20046;-78
2021/04/15 01:45:50;;;;;;;3.03;1.58;;;2.00;99.90;;;;;;4981569;28;20152;-80
2021/04/15 01:48:29;;;;;;;3.70;1.50;;;2.00;99.90;;;;;;4990823;28;20610;-78
2021/04/15 01:51:01;;;;;;;3.28;1.40;;;2.00;99.90;;;;;;4996061;28;20038;-78
2021/04/15 01:53:31;;;;;;;4.53;1.92;;;1.90;99.90;;;;;;5048847;28;20048;-79
2021/04/15 01:56:07;;;;;;;4.78;1.98;;;1.90;99.90;;;;;;5053933;28;20460;-76
2021/04/15 01:58:39;;;;;;;6.47;2.38;;;1.80;99.90;;;;;;5052613;28;20033;-80
2021/04/15 02:01:24;;;;;;;9.15;2.90;;;1.90;99.90;;;;;;5061975;28;20063;-80
2021/04/15 02:03:55;;;;;;;;;;;1.90;99.90;;;;;;5057544;28;20032;-80
2021/04/15 02:06:27;;;;;;;6.70;2.53;;;2.10;99.90;;;;;;5064989;28;19920;-79
2021/04/15 02:08:59;;;;;;;9.07;2.85;;;2.10;99.90;;;;;;5062240;28;20055;-78
2021/04/15 02:11:29;;;;;;;5.75;2.88;;;2.10;99.90;;;;;;5057862;28;20036;-77
2021/04/15 02:13:59;;;;;;;7.18;3.00;;;2.10;99.90;;;;;;5062164;28;20060;-78
2021/04/15 02:16:29;;;;;;;5.13;2.45;;;2.10;99.90;;;;;;5057445;28;20403;-79
2021/04/15 02:19:09;;;;;;;7.63;3.33;;;2.10;99.90;;;;;;5098412;28;20132;-80
2021/04/15 02:22:05;;;;;;;8.40;3.25;;;2.10;99.90;;;;;;5078696;28;20114;-79
2021/04/15 02:24:52;;;;;;;8.27;3.45;;;2.10;99.90;;;;;;5105417;28;20404;-79
2021/04/15 02:27:52;;;;;;;6.28;3.42;;;2.10;99.90;;;;;;5109287;28;20101;-79
2021/04/15 02:30:35;;;;;;;7.03;2.88;;;2.10;99.90;;;;;;5040833;28;20053;-79
2021/04/15 02:33:13;;;;;;;7.43;3.38;;;2.00;99.90;;;;;;5038009;28;20053;-77
2021/04/15 02:35:45;;;;;;;8.20;3.15;;;2.00;99.90;;;;;;5049688;28;20044;-78
2021/04/15 02:38:12;;;;;;;9.25;3.70;;;2.00;99.90;;;;;;5030896;28;20056;-77
2021/04/15 02:40:46;;;;;;;10.60;3.25;;;2.00;99.90;;;;;;5048323;28;20047;-79
2021/04/15 02:43:20;;;;;;;5.47;3.28;;;2.10;99.90;;;;;;5048239;28;20519;-78
2021/04/15 02:45:51;;;;;;;8.20;3.60;;;2.00;99.90;;;;;;5047967;28;20041;-80
2021/04/15 02:48:30;;;;;;;8.70;3.50;;;2.00;99.90;;;;;;5048482;28;20053;-80
2021/04/15 02:51:03;;;;;;;6.47;3.50;;;2.00;99.90;;;;;;5013855;28;20051;-78
2021/04/15 02:53:36;;;;;;;11.77;3.92;;;2.00;99.90;;;;;;5045729;28;20107;-79
2021/04/15 02:56:09;;;;;;;6.18;3.50;;;2.00;99.90;;;;;;5027685;28;20042;-79
2021/04/15 02:58:42;;;;;;;7.88;3.65;;;2.00;99.90;;;;;;5039747;28;20131;-78
2021/04/15 03:01:14;;;;;;;7.30;3.08;;;2.00;99.90;;;;;;5030975;28;20124;-81
2021/04/15 03:03:44;;;;;;;10.10;3.85;;;2.00;99.90;;;;;;5045652;28;20045;-80
2021/04/15 03:06:13;;;;;;;8.05;3.28;;;1.90;99.90;;;;;;5077832;28;20102;-80
2021/04/15 03:08:42;;;;;;;11.80;3.40;;;1.90;99.90;;;;;;5080912;28;20137;-78
2021/04/15 03:11:19;;;;;;;7.22;2.58;;;1.90;99.90;;;;;;5098258;28;20028;-79
2021/04/15 03:13:51;;;;;;;8.27;3.50;;;1.90;99.90;;;;;;5094820;28;20046;-79
2021/04/15 03:16:18;;;;;;;6.32;2.90;;;1.90;99.90;;;;;;5097425;28;20394;-81
2021/04/15 03:18:57;;;;;;;3.05;2.35;;;1.90;99.90;;;;;;5071979;28;20059;-79
2021/04/15 03:21:30;;;;;;;4.38;2.55;;;1.80;99.90;;;;;;5065475;28;20044;-79
2021/04/15 03:24:01;;;;;;;7.95;2.85;;;1.70;99.90;;;;;;5059621;28;20363;-79
2021/04/15 03:26:36;;;;;;;11.27;3.00;;;1.70;99.90;;;;;;5055257;28;20051;-80
2021/04/15 03:29:16;;;;;;;9.70;3.25;;;1.60;99.90;;;;;;5056193;28;20623;-79
2021/04/15 03:31:48;;;;;;;6.57;3.50;;;1.60;99.90;;;;;;5067446;28;20808;-80
2021/04/15 03:34:27;;;;;;;10.77;4.25;;;1.60;99.90;;;;;;5073036;28;20438;-79
2021/04/15 03:36:56;;;;;;;16.10;4.43;;;1.60;99.90;;;;;;5066039;28;20459;-78
2021/04/15 03:39:33;;;;;;;14.40;4.82;;;1.70;99.90;;;;;;5051282;28;20052;-80
2021/04/15 03:42:19;;;;;;;8.85;4.72;;;1.80;99.90;;;;;;5074700;28;20050;-78
2021/04/15 03:44:50;;;;;;;12.10;4.43;;;1.70;99.90;;;;;;5078651;28;20115;-78
2021/04/15 03:47:21;;;;;;;9.32;4.00;;;1.70;99.90;;;;;;5071448;28;20121;-81
2021/04/15 03:50:14;;;;;;;11.13;4.28;;;1.70;99.90;;;;;;5060651;28;20452;-79
2021/04/15 03:52:45;;;;;;;14.40;4.93;;;1.70;99.90;;;;;;5069644;28;20161;-79
2021/04/15 03:55:40;;;;;;;11.68;4.75;;;1.70;99.90;;;;;;5070983;28;20043;-78
2021/04/15 03:58:21;;;;;;;9.07;5.05;;;1.70;99.90;;;;;;5072388;28;20472;-78
2021/04/15 04:00:52;;;;;;;10.77;3.88;;;1.70;99.90;;;;;;5070204;28;20047;-78
2021/04/15 04:03:21;;;;;;;8.73;4.03;;;1.80;99.90;;;;;;5072506;28;20475;-78
2021/04/15 04:06:12;;;;;;;12.07;5.05;;;1.70;99.90;;;;;;5069092;28;20396;-80
2021/04/15 04:08:57;;;;;;;9.40;3.83;;;1.60;99.90;;;;;;5063867;28;20032;-80
2021/04/15 04:11:23;;;;;;;11.15;5.03;;;1.60;99.90;;;;;;5066541;28;20072;-77
2021/04/15 04:13:55;;;;;;;9.25;4.07;;;1.60;99.90;;;;;;5068810;28;20033;-78
2021/04/15 04:16:41;;;;;;;10.18;4.45;;;1.60;99.90;;;;;;5069444;28;20036;-79
2021/04/15 04:19:23;;;;;;;12.57;4.63;;;1.60;99.90;;;;;;5069452;28;20460;-78
2021/04/15 04:22:17;;;;;;;12.15;4.25;;;1.60;99.90;;;;;;5067170;28;20045;-79
2021/04/15 04:24:56;;;;;;;14.90;4.35;;;1.60;99.90;;;;;;5074525;28;20836;-79
2021/04/15 04:27:55;;;;;;;15.20;4.45;;;1.60;99.90;;;;;;5059772;28;20032;-80
2021/04/15 04:30:26;;;;;;;13.35;4.90;;;1.60;99.90;;;;;;5064061;28;20040;-80
2021/04/15 04:33:03;;;;;;;19.08;4.95;;;1.60;99.90;;;;;;5064269;28;20033;-80
2021/04/15 04:35:33;;;;;;;11.40;4.90;;;1.60;99.90;;;;;;5069740;28;20040;-81
2021/04/15 04:38:04;;;;;;;23.15;5.72;;;1.60;99.90;;;;;;5074037;28;20045;-79
2021/04/15 04:40:39;;;;;;;12.77;4.85;;;1.60;99.90;;;;;;5067613;28;20033;-79
2021/04/15 04:43:14;;;;;;;14.30;4.85;;;1.60;99.90;;;;;;5072105;28;20076;-80
2021/04/15 04:45:40;;;;;;;15.80;4.87;;;1.60;99.90;;;;;;5066104;28;20041;-79
2021/04/15 04:48:27;;;;;;;16.40;4.88;;;1.60;99.90;;;;;;5070639;28;20302;-79
2021/04/15 04:51:03;;;;;;;13.38;2.50;;;1.60;99.90;;;;;;5064235;28;20044;-79
2021/04/15 04:53:37;;;;;;;8.85;4.32;;;1.90;99.90;;;;;;5069852;28;20033;-78
2021/04/15 04:56:31;;;;;;;14.33;4.53;;;1.70;99.90;;;;;;5069387;28;20480;-80
2021/04/15 04:59:09;;;;;;;11.07;4.30;;;1.70;99.90;;;;;;5071605;28;20039;-78
2021/04/15 05:01:35;;;;;;;13.55;4.97;;;1.90;99.90;;;;;;5072163;28;20468;-79
2021/04/15 05:04:02;;;;;;;10.55;4.50;;;1.80;99.90;;;;;;5065793;28;20056;-79
2021/04/15 05:06:37;;;;;;;12.27;3.45;;;1.70;99.90;;;;;;5066250;28;20033;-76
2021/04/15 05:09:31;;;;;;;10.95;3.95;;;1.70;99.90;;;;;;5064524;28;20402;-78
2021/04/15 05:11:58;;;;;;;13.65;4.13;;;1.80;99.90;;;;;;5070490;28;20048;-80
2021/04/15 05:14:27;;;;;;;17.27;5.95;;;1.70;99.90;;;;;;5062705;28;20048;-77
2021/04/15 05:16:56;;;;;;;19.48;4.95;;;1.70;99.90;;;;;;5067491;28;20464;-77
2021/04/15 05:19:22;;;;;;;12.38;5.53;;;1.80;99.90;;;;;;5092394;28;20155;-77
2021/04/15 05:21:51;;;;;;;11.50;5.00;;;1.70;99.90;;;;;;5105629;28;20036;-79
2021/04/15 05:24:28;;;;;;;10.90;4.88;;;1.80;99.90;;;;;;5076501;28;20044;-78
2021/04/15 05:26:57;;;;;;;20.92;5.18;;;1.90;99.90;;;;;;5096102;28;20062;-77
2021/04/15 05:29:31;;;;;;;11.98;5.40;;;1.80;99.90;;;;;;5101976;28;20549;-78
2021/04/15 05:31:58;;;;;;;9.05;4.68;;;1.90;99.90;;;;;;5091740;28;20062;-77
2021/04/15 05:34:29;;;;;;;9.77;5.35;;;1.90;99.90;;;;;;5087075;28;20043;-80
2021/04/15 05:37:04;;;;;;;16.88;5.03;;;1.90;99.90;;;;;;5093258;28;20040;-77
2021/04/15 05:39:31;;;;;;;14.40;5.40;;;1.90;99.90;;;;;;5076413;28;20036;-76
2021/04/15 05:42:13;;;;;;;12.88;4.75;;;2.00;99.90;;;;;;5075461;28;20491;-76
2021/04/15 05:44:58;;;;;;;20.60;5.07;;;2.00;99.90;;;;;;5102500;28;20027;-78
2021/04/15 05:47:39;;;;;;;13.65;5.13;;;2.10;99.90;;;;;;5096489;28;20050;-79
2021/04/15 05:50:10;;;;;;;19.98;5.03;;;2.10;99.90;;;;;;5079377;28;20757;-80
2021/04/15 05:52:45;;;;;;;7.88;4.22;;;2.20;99.90;;;;;;5106134;28;20039;-77
2021/04/15 05:55:15;;;;;;;16.98;4.80;;;2.20;99.90;;;;;;5087679;28;20032;-78
2021/04/15 05:57:46;;;;;;;16.08;5.05;;;2.30;99.90;;;;;;5107504;28;20038;-77
2021/04/15 06:00:18;;;;;;;14.02;4.60;;;2.30;99.90;;;;;;5080329;28;20035;-78
2021/04/15 06:02:50;;;;;;;15.88;4.72;;;2.40;99.90;;;;;;5074380;28;20126;-78
2021/04/15 06:05:25;;;;;;;18.67;5.22;;;2.50;99.90;;;;;;5096049;28;20101;-76
2021/04/15 06:07:54;;;;;;;16.08;5.45;;;2.60;99.90;;;;;;5093272;28;20043;-79
2021/04/15 06:10:24;;;;;;;17.60;5.20;;;2.60;99.90;;;;;;5074738;28;20471;-80
2021/04/15 06:13:04;;;;;;;26.15;5.03;;;2.80;99.90;;;;;;5079406;28;20131;-78
2021/04/15 06:15:33;;;;;;;20.63;5.20;;;2.80;99.90;;;;;;5075339;28;20176;-77
2021/04/15 06:18:22;;;;;;;11.88;4.53;;;2.90;99.90;;;;;;5075182;28;20032;-78
2021/04/15 06:20:59;;;;;;;14.95;5.05;;;3.00;99.90;;;;;;5093694;28;20044;-81
2021/04/15 06:23:35;;;;;;;15.55;5.45;;;3.10;99.90;;;;;;5101558;28;20123;-78
2021/04/15 06:26:02;;;;;;;17.83;5.05;;;3.20;99.90;;;;;;5092787;28;20110;-78
2021/04/15 06:28:33;;;;;;;14.80;5.13;;;3.20;99.90;;;;;;5087715;28;20446;-80
2021/04/15 06:31:24;;;;;;;12.40;5.30;;;3.30;99.90;;;;;;5102476;28;20036;-78
2021/04/15 06:33:53;;;;;;;12.93;5.15;;;3.40;99.90;;;;;;5081090;28;20039;-79
2021/04/15 06:37:03;;;;;;;15.95;5.25;;;3.50;99.90;;;;;;5090307;28;20126;-80
2021/04/15 06:39:29;;;;;;;13.45;5.07;;;3.60;99.90;;;;;;5062614;28;20115;-80
2021/04/15 06:42:19;;;;;;;13.20;4.82;;;3.90;99.90;;;;;;5049996;28;20120;-80
2021/04/15 06:44:49;;;;;;;9.65;4.82;;;3.80;99.90;;;;;;5054689;28;20723;-78
2021/04/15 06:47:30;;;;;;;13.60;4.50;;;3.90;99.90;;;;;;5047848;28;20110;-79
2021/04/15 06:50:16;;;;;;;9.48;4.13;;;4.10;99.90;;;;;;5045444;28;20102;-79
2021/04/15 06:53:25;;;;;;;16.95;5.63;;;4.20;99.90;;;;;;5055790;28;20044;-79
2021/04/15 06:55:54;;;;;;;15.95;4.50;;;4.40;99.90;;;;;;4973773;28;20526;-80
2021/04/15 06:58:46;;;;;;;13.23;4.18;;;4.50;99.90;;;;;;4969809;28;20051;-78
2021/04/15 07:01:48;;;;;;;18.88;4.10;;;4.60;99.90;;;;;;4951748;28;20474;-80
2021/04/15 07:04:24;;;;;;;11.25;3.15;;;4.80;99.90;;;;;;4970866;28;20082;-78
2021/04/15 07:07:26;;;;;;;11.65;3.55;;;5.00;99.90;;;;;;4973252;28;20043;-78
2021/04/15 07:10:20;;;;;;;15.60;3.50;;;5.00;99.90;;;;;;4999040;28;20046;-80
2021/04/15 07:13:20;;;;;;;13.85;3.70;;;5.10;99.90;;;;;;5010136;28;20046;-81
2021/04/15 07:16:25;;;;;;;9.70;3.53;;;5.30;99.90;;;;;;4983905;28;20045;-78
2021/04/15 07:19:06;;;;;;;10.35;3.22;;;5.30;99.90;;;;;;5005988;28;20057;-80
2021/04/15 07:21:56;;;;;;;14.88;3.38;;;5.30;99.90;;;;;;4997667;28;20104;-79
2021/04/15 07:24:24;;;;;;;13.27;3.50;;;5.40;99.90;;;;;;5008238;28;20536;-76
2021/04/15 07:27:26;;;;;;;10.90;3.45;;;5.60;99.90;;;;;;4993480;28;20101;-76
2021/04/15 07:30:00;;;;;;;7.68;3.47;;;5.60;99.90;;;;;;5030119;28;20071;-78
2021/04/15 07:32:50;;;;;;;11.98;3.35;;;5.50;99.90;;;;;;5063285;28;20240;-78
2021/04/15 07:35:33;;;;;;;12.10;3.53;;;5.60;99.90;;;;;;5052137;28;20145;-78
2021/04/15 07:38:28;;;;;;;18.58;4.00;;;5.70;99.90;;;;;;5058658;28;20491;-76
2021/04/15 07:41:18;;;;;;;16.85;3.72;;;5.70;99.90;;;;;;5067283;28;20387;-77
2021/04/15 07:43:50;;;;;;;13.82;4.50;;;5.80;99.90;;;;;;5069095;28;20086;-79
2021/04/15 07:46:40;;;;;;;11.15;3.47;;;5.90;99.90;;;;;;5055669;28;20057;-77
2021/04/15 07:49:09;;;;;;;11.00;3.30;;;6.00;99.90;;;;;;5047305;28;20152;-77
2021/04/15 07:51:58;;;;;;;13.75;3.28;;;6.10;99.90;;;;;;5054723;28;20427;-76
2021/04/15 07:54:35;;;;;;;8.55;3.08;;;6.10;99.90;;;;;;5062832;28;20109;-77
2021/04/15 07:57:31;;;;;;;9.65;3.13;;;6.30;99.90;;;;;;5060696;28;20528;-78
2021/04/15 08:00:12;;;;;;;6.38;2.90;;;6.40;99.90;;;;;;5062736;28;20439;-76
2021/04/15 08:03:06;;;;;;;14.68;3.42;;;6.50;99.90;;;;;;5068422;28;20112;-76
2021/04/15 08:05:48;;;;;;;12.65;3.90;;;6.60;99.90;;;;;;5066495;28;20033;-76
2021/04/15 08:08:26;;;;;;;10.65;3.53;;;6.70;99.90;;;;;;5058586;28;20445;-76
2021/04/15 08:11:40;;;;;;;7.40;3.53;;;6.60;99.90;;;;;;5063624;28;20033;-77
2021/04/15 08:14:21;;;;;;;11.07;3.67;;;6.60;99.90;;;;;;5008194;28;20052;-77
2021/04/15 08:17:11;;;;;;;14.18;3.53;;;6.60;99.90;;;;;;5008615;28;20104;-76
2021/04/15 08:19:58;;;;;;;13.70;3.95;;;6.70;99.90;;;;;;4983807;28;20049;-75
2021/04/15 08:22:28;;;;;;;7.75;3.00;;;6.80;99.90;;;;;;5004083;28;20082;-76
2021/04/15 08:25:00;;;;;;;10.02;3.45;;;6.90;99.90;;;;;;5005213;28;20493;-75
2021/04/15 08:27:48;;;;;;;9.45;2.83;;;7.00;99.90;;;;;;5030130;28;20155;-79
2021/04/15 08:30:23;;;;;;;8.77;3.20;;;7.10;99.90;;;;;;5017511;28;20037;-77
2021/04/15 08:33:10;;;;;;;9.15;3.28;;;7.10;99.90;;;;;;5028600;28;20049;-76
2021/04/15 08:36:12;;;;;;;11.05;2.90;;;7.10;99.90;;;;;;5028734;28;20037;-77
2021/04/15 08:38:51;;;;;;;10.80;2.70;;;7.20;99.90;;;;;;4963819;28;20139;-76
2021/04/15 08:41:48;;;;;;;7.97;3.20;;;7.40;99.90;;;;;;4976485;28;20141;-77
2021/04/15 08:44:41;;;;;;;7.72;2.67;;;7.30;99.90;;;;;;4956876;28;20059;-77
2021/04/15 08:47:28;;;;;;;6.25;2.30;;;7.30;99.90;;;;;;4981407;28;20047;-76
2021/04/15 08:50:13;;;;;;;7.90;2.38;;;7.40;99.90;;;;;;4980189;28;20056;-78
2021/04/15 08:52:53;;;;;;;11.82;2.20;;;7.60;99.90;;;;;;5002948;28;20042;-77
2021/04/15 08:55:25;;;;;;;6.95;1.92;;;7.70;99.90;;;;;;4997701;28;20081;-76
2021/04/15 08:58:28;;;;;;;8.77;2.25;;;7.60;99.90;;;;;;4976053;28;20054;-77
2021/04/15 09:01:31;;;;;;;8.88;2.42;;;7.60;99.90;;;;;;5008294;28;20449;-78
2021/04/15 09:04:17;;;;;;;8.32;2.35;;;7.70;99.90;;;;;;4991994;28;20046;-78
2021/04/15 09:07:05;;;;;;;4.75;1.80;;;7.70;99.90;;;;;;5001072;28;20100;-77
2021/04/15 09:09:52;;;;;;;8.13;2.38;;;8.00;99.90;;;;;;4998615;28;20100;-80
2021/04/15 09:12:51;;;;;;;6.32;2.20;;;8.30;99.90;;;;;;5005024;28;20058;-78
2021/04/15 09:15:25;;;;;;;6.55;2.17;;;8.30;99.90;;;;;;5029938;28;20049;-77
2021/04/15 09:18:14;;;;;;;5.40;1.70;;;8.50;99.90;;;;;;5058194;28;20063;-80
2021/04/15 09:21:06;;;;;;;5.03;1.60;;;8.50;99.00;;;;;;5099964;28;20312;-78
2021/04/15 09:23:56;;;;;;;5.90;1.65;;;8.60;98.20;;;;;;5102061;28;20038;-78
2021/04/15 09:26:51;;;;;;;4.65;1.35;;;8.70;96.70;;;;;;5082640;28;20552;-80
2021/04/15 09:29:38;;;;;;;5.55;1.50;;;8.80;94.60;;;;;;5080303;28;20051;-80
2021/04/15 09:32:12;;;;;;;5.30;2.00;;;8.70;96.50;;;;;;5101396;28;20467;-77
2021/04/15 09:34:59;;;;;;;8.70;1.38;;;9.00;93.40;;;;;;5082525;28;20084;-78
2021/04/15 09:37:55;;;;;;;6.93;1.75;;;9.10;92.50;;;;;;5065068;28;20040;-74
2021/04/15 09:40:42;;;;;;;6.70;1.45;;;9.20;87.80;;;;;;5110559;28;20127;-77
2021/04/15 09:43:42;;;;;;;4.82;1.23;;;9.10;84.90;;;;;;5093734;28;20032;-80
2021/04/15 09:46:28;;;;;;;5.35;1.45;;;9.00;72.30;;;;;;5093836;28;20039;-77
2021/04/15 09:49:15;;;;;;;5.22;1.30;;;9.20;74.90;;;;;;5109541;28;20045;-79
2021/04/15 09:52:03;;;;;;;3.85;1.50;;;9.20;80.70;;;;;;5101794;28;20043;-77
2021/04/15 09:54:52;;;;;;;4.15;1.45;;;9.50;83.70;;;;;;5107089;28;20036;-79
2021/04/15 09:57:43;;;;;;;4.55;1.42;;;9.60;79.80;;;;;;5112645;28;20434;-77
2021/04/15 10:00:25;;;;;;;3.80;1.13;;;9.60;81.90;;;;;;5075277;28;20190;-76
2021/04/15 10:03:07;;;;;;;4.93;1.60;;;9.70;73.00;;;;;;5074956;28;20082;-79
2021/04/15 10:05:51;;;;;;;4.43;1.50;;;9.60;75.40;;;;;;5074861;28;20044;-80
2021/04/15 10:08:32;;;;;;;4.28;1.33;;;9.70;79.80;;;;;;5094043;28;20391;-76
2021/04/15 10:11:07;;;;;;;5.90;1.27;;;9.70;81.70;;;;;;5104151;28;20115;-77
2021/04/15 10:14:18;;;;;;;2.40;1.20;;;9.90;81.40;;;;;;5110891;28;20482;-80
2021/04/15 10:17:02;;;;;;;5.15;1.10;;;10.10;76.60;;;;;;5097767;28;20044;-78
2021/04/15 10:19:47;;;;;;;3.13;1.60;;;10.10;71.00;;;;;;5111457;28;20100;-77
2021/04/15 10:22:42;;;;;;;3.22;1.20;;;9.90;67.40;;;;;;5094441;28;20074;-74
2021/04/15 10:25:11;;;;;;;2.43;1.00;;;10.10;70.80;;;;;;5098470;28;20036;-78
2021/04/15 10:27:55;;;;;;;3.88;1.10;;;10.20;67.00;;;;;;5092596;28;20274;-77
2021/04/15 10:30:51;;;;;;;5.25;1.40;;;10.00;67.10;;;;;;5075798;28;20040;-79
2021/04/15 10:33:34;;;;;;;4.05;1.40;;;10.30;70.30;;;;;;5074439;28;20051;-76
2021/04/15 10:36:17;;;;;;;3.88;1.48;;;10.60;67.60;;;;;;5072990;28;20056;-76
2021/04/15 10:39:03;;;;;;;5.63;1.60;;;10.80;67.30;;;;;;5087078;28;20047;-80
2021/04/15 10:41:51;;;;;;;4.97;1.40;;;11.20;66.70;;;;;;5074124;28;20056;-77
2021/04/15 10:44:50;;;;;;;7.63;1.27;;;11.40;68.90;;;;;;5091221;28;20058;-77
2021/04/15 10:47:28;;;;;;;5.72;1.35;;;11.80;71.60;;;;;;5112520;28;20140;-74
2021/04/15 10:50:08;;;;;;;3.10;1.05;;;12.10;68.20;;;;;;5094540;28;20043;-77
2021/04/15 10:52:36;;;;;;;2.95;1.00;;;12.30;55.70;;;;;;5073681;28;20066;-75
2021/04/15 10:55:25;;;;;;;4.40;1.38;;;12.50;56.30;;;;;;5071448;28;20039;-78
2021/04/15 10:57:53;;;;;;;6.20;1.40;;;12.80;56.50;;;;;;5093446;28;20099;-80
2021/04/15 11:00:32;;;;;;;5.95;1.40;;;12.60;56.50;;;;;;5090849;28;20058;-77
2021/04/15 11:03:12;;;;;;;2.97;1.15;;;13.00;57.50;;;;;;5094067;28;20115;-80
2021/04/15 11:05:45;;;;;;;5.03;1.00;;;13.20;50.80;;;;;;5100485;28;20546;-82
2021/04/15 11:08:19;;;;;;;2.75;1.10;;;13.10;49.50;;;;;;5097511;28;20364;-77
2021/04/15 11:10:46;;;;;;;3.58;1.25;;;12.90;53.50;;;;;;5082925;28;20047;-78
2021/04/15 11:13:17;;;;;;;3.30;1.33;;;13.60;58.70;;;;;;5097580;28;20039;-77
2021/04/15 11:15:56;;;;;;;3.60;1.40;;;14.00;57.30;;;;;;5079448;28;20048;-77
2021/04/15 11:18:35;;;;;;;6.30;1.30;;;13.70;52.60;;;;;;5089624;28;20039;-79
2021/04/15 11:21:19;;;;;;;8.25;1.30;;;13.60;51.90;;;;;;5102792;28;20131;-78
2021/04/15 11:23:47;;;;;;;3.17;1.20;;;13.20;50.40;;;;;;5097865;28;20035;-76
2021/04/15 11:26:18;;;;;;;8.82;1.65;;;13.10;53.40;;;;;;5083092;28;20044;-78
2021/04/15 11:28:45;;;;;;;6.55;1.40;;;13.00;50.80;;;;;;5074175;28;20089;-80
2021/04/15 11:31:11;;;;;;;3.47;1.15;;;13.00;53.10;;;;;;5088904;28;20043;-75
2021/04/15 11:33:45;;;;;;;3.65;1.15;;;13.30;52.00;;;;;;5114950;28;20454;-78
2021/04/15 11:36:27;;;;;;;2.70;1.27;;;13.60;47.10;;;;;;5081302;28;20078;-79
2021/04/15 11:39:04;;;;;;;3.25;1.10;;;14.10;48.90;;;;;;5084159;28;20082;-81
2021/04/15 11:41:46;;;;;;;6.15;1.30;;;14.20;51.30;;;;;;5106428;28;20036;-78
2021/04/15 11:44:22;;;;;;;5.65;1.77;;;14.50;47.80;;;;;;5112559;28;20566;-78
2021/04/15 11:46:53;;;;;;;2.17;1.17;;;14.80;49.80;;;;;;5115769;28;20110;-78
2021/04/15 11:49:18;;;;;;;3.45;1.40;;;14.20;46.10;;;;;;5108908;28;20051;-82
2021/04/15 11:52:23;;;;;;;3.72;1.65;;;13.70;49.10;;;;;;5078242;28;20047;-76
2021/04/15 11:54:48;;;;;;;8.95;1.70;;;12.70;51.60;;;;;;5087906;28;20071;-77
2021/04/15 11:57:36;;;;;;;5.13;1.70;;;12.10;55.00;;;;;;5097553;28;20067;-76
2021/04/15 12:00:02;;;;;;;5.80;1.73;;;11.60;57.60;;;;;;5101828;28;20174;-77
2021/04/15 12:02:38;;;;;;;5.75;2.20;;;11.10;57.90;;;;;;5077029;28;20048;-75
2021/04/15 12:05:16;;;;;;;4.53;1.80;;;10.90;63.20;;;;;;5082717;28;20043;-74
2021/04/15 12:08:00;;;;;;;5.68;2.10;;;10.60;73.70;;;;;;5113061;28;20032;-79
2021/04/15 12:10:30;;;;;;;7.30;2.05;;;10.50;77.70;;;;;;5095718;28;20590;-77
2021/04/15 12:13:12;;;;;;;5.85;1.92;;;10.40;77.20;;;;;;5084547;28;20051;-78
2021/04/15 12:15:45;;;;;;;5.50;2.10;;;10.40;75.20;;;;;;5113813;28;20032;-79
2021/04/15 12:18:32;;;;;;;4.78;2.15;;;10.70;82.10;;;;;;5088548;28;20044;-75
2021/04/15 12:21:05;;;;;;;6.40;2.30;;;10.10;88.30;;;;;;5095264;28;20455;-81
2021/04/15 12:23:41;;;;;;;3.15;1.70;;;9.80;91.60;;;;;;5102825;28;20039;-78
2021/04/15 12:26:19;;;;;;;5.70;2.15;;;9.70;90.30;;;;;;5109468;28;20087;-78
2021/04/15 12:29:19;;;;;;;5.10;2.30;;;9.40;92.80;;;;;;5077806;28;20055;-79
2021/04/15 12:32:15;;;;;;;7.50;2.30;;;9.60;93.00;;;;;;5085208;28;20036;-79
2021/04/15 12:34:56;;;;;;;5.80;2.38;;;9.40;93.10;;;;;;5081978;28;20044;-77
2021/04/15 12:37:31;;;;;;;5.78;1.77;;;9.40;93.80;;;;;;5100299;28;20417;-80
2021/04/15 12:40:03;;;;;;;5.88;2.22;;;9.50;91.20;;;;;;5076583;28;20129;-77
2021/04/15 12:42:34;;;;;;;3.40;2.13;;;9.50;86.00;;;;;;5092433;28;20093;-79
2021/04/15 12:45:01;;;;;;;7.30;2.60;;;9.50;85.90;;;;;;5095716;28;20067;-78
2021/04/15 12:47:33;;;;;;;7.18;2.53;;;9.40;91.10;;;;;;5100459;28;20047;-75
2021/04/15 12:49:59;;;;;;;4.43;2.13;;;9.40;89.40;;;;;;5067967;28;20126;-76
2021/04/15 12:52:29;;;;;;;3.67;2.33;;;9.50;89.40;;;;;;5086659;28;20123;-79
2021/04/15 12:54:58;;;;;;;3.65;2.50;;;9.60;89.10;;;;;;5106634;28;20036;-79
2021/04/15 12:57:25;;;;;;;7.30;2.55;;;9.80;89.60;;;;;;5088168;28;20122;-77
2021/04/15 12:59:53;;;;;;;9.30;2.33;;;9.90;85.70;;;;;;5094261;28;20048;-79
2021/04/15 13:02:29;;;;;;;5.97;2.13;;;9.80;86.00;;;;;;5094848;28;20093;-77
2021/04/15 13:05:09;;;;;;;6.88;2.70;;;9.80;83.40;;;;;;5108437;28;20086;-77
2021/04/15 13:07:42;;;;;;;5.05;2.53;;;9.70;82.00;;;;;;5076343;28;20051;-78
2021/04/15 13:10:14;;;;;;;6.38;2.20;;;9.70;84.90;;;;;;5077277;28;20047;-78
2021/04/15 13:12:43;;;;;;;2.47;1.70;;;9.80;78.70;;;;;;5084933;28;20089;-77
2021/04/15 13:15:29;;;;;;;6.45;2.10;;;9.70;77.30;;;;;;5073613;28;20054;-76
2021/04/15 13:18:03;;;;;;;4.28;1.90;;;9.50;73.60;;;;;;5079707;28;20052;-76
2021/04/15 13:20:29;;;;;;;9.27;2.25;;;9.40;73.00;;;;;;5097203;28;20048;-76
2021/04/15 13:23:15;;;;;;;4.43;1.83;;;9.60;73.20;;;;;;5079757;28;20066;-77
2021/04/15 13:25:50;;;;;;;3.58;1.70;;;9.60;72.80;;;;;;5091251;28;20062;-77
2021/04/15 13:28:24;;;;;;;4.40;1.83;;;9.60;67.80;;;;;;5102072;28;20035;-78
2021/04/15 13:31:00;;;;;;;4.22;1.88;;;9.50;67.50;;;;;;5073859;28;20478;-78
2021/04/15 13:33:29;;;;;;;4.55;1.92;;;9.70;67.60;;;;;;5087574;28;20055;-78
2021/04/15 13:36:01;;;;;;;4.57;2.05;;;9.70;69.40;;;;;;5076394;28;20075;-78
2021/04/15 13:38:26;;;;;;;4.28;2.30;;;9.70;67.60;;;;;;5079647;28;20462;-78
2021/04/15 13:40:59;;;;;;;4.35;1.92;;;9.70;68.00;;;;;;5083748;28;20051;-79
2021/04/15 13:43:44;;;;;;;3.10;1.73;;;10.10;65.10;;;;;;5086931;28;20040;-79
2021/04/15 13:46:36;;;;;;;5.65;2.00;;;10.70;63.30;;;;;;5097110;28;20032;-80
2021/04/15 13:49:14;;;;;;;3.65;1.88;;;11.20;64.60;;;;;;5098062;28;20160;-81
2021/04/15 13:51:49;;;;;;;4.50;2.25;;;11.10;61.80;;;;;;5069777;28;20054;-80
2021/04/15 13:54:16;;;;;;;4.05;2.22;;;10.60;61.30;;;;;;5100570;28;20054;-77